CheckWX is a tool to help pilots better visualize weather data.  It is not intended as a substitute for an official pre-flight weather briefing.

05:20:02 UTC

KMOB METAR
Mobile Regional Airport
Mobile, Alabama, USA
Current

24 mins ago

KMOB 200456Z 14012KT 1SM BR OVC003 21/21 A3000 RMK AO2 SLP156 T02060206 $
Observed
Feb-20 @ 04:56 UTC
Wind
  • 140° at 12 KTS
Visibility
1,609 meters
Flight Rules
LIFR
Conditions
Mist
Cloud Levels
  • Overcast at 300' AGL
Temperature
21°C / 70°F
Dewpoint
21°C / 70°F
Humidity
100%
Altimeter
30" Hg
Pressure
1015.6 hPa
Previous

1 hour ago

KMOB 200356Z 14014G21KT 1SM BR OVC002 20/20 A3000 RMK AO2 SLP158 T02000200 $
Observed
Feb-20 @ 03:56 UTC
Wind
  • 140° at 14 KTS
  • Gusting to 21 KTS
Visibility
1,609 meters
Flight Rules
LIFR
Conditions
Mist
Cloud Levels
  • Overcast at 200' AGL
Temperature
20°C / 68°F
Dewpoint
20°C / 68°F
Humidity
100%
Altimeter
30" Hg
Pressure
1015.8 hPa
Previous

2 hours ago

KMOB 200312Z 13011KT 1 1/4SM BR OVC002 19/19 A3001 RMK AO2 T01940194 $
Observed
Feb-20 @ 03:12 UTC
Wind
  • 130° at 11 KTS
Visibility
2,012 meters
Flight Rules
LIFR
Conditions
Mist
Cloud Levels
  • Overcast at 200' AGL
Temperature
19°C / 66°F
Dewpoint
19°C / 66°F
Humidity
100%
Altimeter
30.01" Hg
Pressure
1016.22 hPa